Time;durP1;ratioP1;P1;durP2;ratioP2;P2;SDS_P1;SDS_P2;PMS_P1;PMS_P2;Temp;Humidity;BMP_temperature;BMP_pressure;BME280_temperature;BME280_humidity;BME280_pressure;Samples;Min_cycle;Max_cycle;Signal;HPM_P1;HPM_P2
2021/12/20 01:59:54;;;;;;;0.80;0.80;;;0.30;99.90;;;;;;7388877;19;20332;-82
2021/12/20 02:02:28;;;;;;;0.70;0.70;;;0.30;99.90;;;;;;7418288;19;20312;-82
2021/12/20 02:05:22;;;;;;;2.10;1.00;;;0.30;99.90;;;;;;7331354;19;20319;-85
2021/12/20 02:08:13;;;;;;;1.15;1.05;;;0.20;99.90;;;;;;7315599;19;2004359;-81
2021/12/20 02:10:49;;;;;;;1.48;1.20;;;0.20;99.90;;;;;;7170854;19;2004253;-87
2021/12/20 02:13:39;;;;;;;1.10;1.10;;;0.20;99.90;;;;;;7389478;19;20348;-82
2021/12/20 02:16:27;;;;;;;0.80;0.80;;;0.20;99.90;;;;;;7352218;19;20310;-83
2021/12/20 02:19:26;;;;;;;0.82;0.82;;;0.20;99.90;;;;;;7215566;19;2004717;-82
2021/12/20 02:23:00;;;;;;;1.25;1.10;;;0.20;99.90;;;;;;7173230;19;2004425;-84
2021/12/20 02:29:14;;;;;;;0.80;0.80;;;0.10;99.90;;;;;;7265580;19;20336;-83
2021/12/20 02:39:07;;;;;;;1.20;1.10;;;0.00;99.90;;;;;;7209611;19;2004383;-81
2021/12/20 02:41:55;;;;;;;0.95;0.90;;;0.00;99.90;;;;;;7329907;19;20316;-82
2021/12/20 04:36:11;;;;;;;1.90;1.20;;;-0.90;99.90;;;;;;7324822;19;20371;-80
2021/12/20 04:43:17;;;;;;;1.45;1.10;;;-1.00;99.90;;;;;;7365526;19;20360;-79
2021/12/20 04:49:59;;;;;;;1.30;1.20;;;-1.00;99.90;;;;;;7313936;19;2004574;-80
2021/12/20 08:51:38;;;;;;;4.80;2.20;;;-0.40;99.90;;;;;;7327643;19;20313;-81
2021/12/20 08:57:54;;;;;;;2.03;1.52;;;-0.20;99.90;;;;;;7261311;19;20467;-82
2021/12/20 09:01:00;;;;;;;2.15;1.73;;;-0.20;99.90;;;;;;7309673;19;20316;-81
2021/12/20 09:03:32;;;;;;;2.83;2.03;;;-0.10;99.90;;;;;;7150620;19;2004398;-82
2021/12/20 09:06:49;;;;;;;1.88;1.60;;;-0.10;99.90;;;;;;7242804;19;2004459;-82
2021/12/20 09:09:37;;;;;;;1.35;1.25;;;0.00;99.90;;;;;;7300961;19;2004384;-82
2021/12/20 09:12:22;;;;;;;2.58;2.00;;;0.10;99.90;;;;;;7278495;19;2004451;-84
2021/12/20 09:15:19;;;;;;;2.05;1.63;;;0.10;99.90;;;;;;7348486;19;20318;-86
2021/12/20 09:17:59;;;;;;;6.93;1.55;;;0.20;99.90;;;;;;7364505;19;20321;-82
2021/12/20 09:20:48;;;;;;;2.20;1.75;;;0.20;99.90;;;;;;7226201;19;2004444;-84
2021/12/20 09:23:42;;;;;;;1.40;1.30;;;0.20;99.90;;;;;;7266484;19;2004453;-84
2021/12/20 09:26:14;;;;;;;2.00;1.60;;;0.30;99.90;;;;;;7238895;19;2004352;-84
2021/12/20 09:28:42;;;;;;;3.15;1.63;;;0.30;99.90;;;;;;7410001;19;20336;-83
2021/12/20 09:31:09;;;;;;;2.33;1.70;;;0.40;99.90;;;;;;7404970;19;20331;-83
2021/12/20 09:33:38;;;;;;;2.17;1.70;;;0.50;99.90;;;;;;7394273;19;20962;-83
2021/12/20 09:36:29;;;;;;;3.10;1.63;;;0.40;99.90;;;;;;7396308;19;20328;-81
2021/12/20 09:39:18;;;;;;;1.83;1.52;;;0.40;99.90;;;;;;7295910;19;2004253;-83
2021/12/20 09:44:11;;;;;;;1.65;1.55;;;0.40;99.90;;;;;;7396804;19;20340;-81
2021/12/20 09:46:38;;;;;;;2.13;1.50;;;0.40;99.90;;;;;;7391585;19;20835;-81
2021/12/20 09:49:08;;;;;;;1.95;1.70;;;0.50;99.90;;;;;;7363390;19;20323;-81
2021/12/20 09:51:35;;;;;;;2.08;1.80;;;0.60;99.90;;;;;;7385557;19;20690;-82
2021/12/20 09:54:02;;;;;;;2.20;1.70;;;0.50;99.90;;;;;;7390919;19;20854;-81
2021/12/20 09:56:46;;;;;;;1.83;1.73;;;0.60;99.90;;;;;;7394794;19;20364;-80
2021/12/20 09:59:18;;;;;;;3.28;2.88;;;0.60;99.90;;;;;;7372930;19;20269;-80
2021/12/20 10:01:49;;;;;;;3.00;2.07;;;0.70;99.90;;;;;;7390859;19;20325;-80
2021/12/20 10:04:17;;;;;;;4.00;1.70;;;0.70;99.90;;;;;;7390561;19;20344;-84
2021/12/20 10:06:45;;;;;;;1.77;1.67;;;0.70;99.90;;;;;;7385890;19;20931;-82
2021/12/20 10:09:15;;;;;;;1.55;1.45;;;0.80;99.90;;;;;;7381658;19;20312;-80
2021/12/20 10:11:43;;;;;;;1.65;1.55;;;0.80;99.90;;;;;;7394090;19;20347;-81
2021/12/20 10:14:13;;;;;;;4.15;1.55;;;1.00;99.90;;;;;;7387181;19;20313;-80
2021/12/20 10:16:41;;;;;;;2.63;2.05;;;1.00;99.90;;;;;;7402913;19;20404;-83
2021/12/20 10:19:28;;;;;;;2.90;2.10;;;1.10;99.90;;;;;;7400193;19;20352;-82
2021/12/20 10:21:58;;;;;;;1.30;1.23;;;1.10;99.90;;;;;;7270614;19;2004282;-81
2021/12/20 10:24:31;;;;;;;3.03;1.80;;;1.20;99.90;;;;;;7402227;19;22407;-82
2021/12/20 10:26:57;;;;;;;2.70;1.88;;;1.20;99.90;;;;;;7401219;19;20911;-83
2021/12/20 10:29:23;;;;;;;2.13;1.63;;;1.20;99.90;;;;;;7402572;19;20321;-82
2021/12/20 10:31:50;;;;;;;5.67;1.73;;;1.30;99.90;;;;;;7398497;19;20305;-81
2021/12/20 10:34:18;;;;;;;1.50;1.35;;;1.30;99.90;;;;;;7400935;19;20367;-82
2021/12/20 10:36:52;;;;;;;1.73;1.48;;;1.40;99.90;;;;;;7380787;19;20328;-81
2021/12/20 10:39:41;;;;;;;2.55;1.65;;;1.30;99.90;;;;;;7402126;19;20325;-81
2021/12/20 10:42:30;;;;;;;1.65;1.55;;;1.40;99.90;;;;;;7401918;19;20316;-82
2021/12/20 10:45:10;;;;;;;2.40;1.50;;;1.40;99.90;;;;;;7277992;19;2004484;-82
2021/12/20 10:47:37;;;;;;;1.40;1.30;;;1.40;99.90;;;;;;7304780;19;2004242;-82
2021/12/20 10:50:28;;;;;;;4.60;1.50;;;1.60;99.90;;;;;;7406686;19;20325;-83
2021/12/20 10:53:17;;;;;;;2.45;1.70;;;1.60;99.90;;;;;;7298859;19;2004358;-82
2021/12/20 11:20:52;;;;;;;1.70;1.60;;;1.90;99.90;;;;;;7424798;19;20312;-84
2021/12/20 11:23:28;;;;;;;1.60;1.50;;;2.00;99.90;;;;;;7319116;19;2004506;-83
2021/12/20 11:25:54;;;;;;;1.48;1.30;;;2.00;99.90;;;;;;7316286;19;2004492;-84
2021/12/20 11:28:20;;;;;;;2.63;1.60;;;2.00;99.90;;;;;;7351221;19;20329;-82
2021/12/20 11:30:48;;;;;;;2.25;1.98;;;2.00;99.90;;;;;;7300466;19;2004647;-82
2021/12/20 11:33:25;;;;;;;2.15;1.70;;;2.00;99.90;;;;;;7296695;19;2004399;-80
2021/12/20 11:35:54;;;;;;;2.08;1.88;;;1.90;99.90;;;;;;7398050;19;20316;-81
2021/12/20 11:38:22;;;;;;;2.17;1.73;;;1.90;99.90;;;;;;7401039;19;20351;-80
2021/12/20 11:40:48;;;;;;;1.40;1.30;;;1.90;99.90;;;;;;7375137;19;20421;-82
2021/12/20 11:43:13;;;;;;;1.57;1.47;;;1.90;99.90;;;;;;7398788;19;20297;-79
2021/12/20 11:45:40;;;;;;;1.45;1.35;;;1.90;99.90;;;;;;7397050;19;20722;-81
2021/12/20 11:48:13;;;;;;;2.15;1.70;;;1.90;99.90;;;;;;7400089;19;20312;-83
2021/12/20 11:50:40;;;;;;;1.67;1.58;;;2.00;99.90;;;;;;7400121;19;20308;-83
2021/12/20 11:53:07;;;;;;;2.88;1.50;;;2.00;99.90;;;;;;7397064;19;20342;-82
2021/12/20 11:55:35;;;;;;;1.63;1.52;;;2.20;99.90;;;;;;7390473;19;20342;-80
2021/12/20 11:58:07;;;;;;;3.97;1.80;;;1.90;99.90;;;;;;7401560;19;20346;-82
2021/12/20 12:00:40;;;;;;;2.08;1.98;;;2.00;99.90;;;;;;7276169;19;2004414;-81
2021/12/20 12:03:26;;;;;;;1.92;1.55;;;2.10;99.90;;;;;;7283736;19;2004480;-79
2021/12/20 12:05:53;;;;;;;1.73;1.42;;;2.00;99.90;;;;;;7395191;19;20301;-81
2021/12/20 12:09:03;;;;;;;1.60;1.50;;;1.90;99.90;;;;;;7390313;19;20312;-82
2021/12/20 12:11:39;;;;;;;4.65;2.08;;;2.00;99.90;;;;;;7307500;19;20316;-83
2021/12/20 12:15:21;;;;;;;4.65;2.40;;;2.10;99.90;;;;;;7325659;19;20333;-82
2021/12/20 12:18:51;;;;;;;2.83;1.95;;;2.20;99.90;;;;;;7096263;19;2004411;-81
2021/12/20 12:21:46;;;;;;;1.60;1.20;;;2.30;99.90;;;;;;7283139;19;2004440;-82
2021/12/20 12:24:15;;;;;;;1.85;1.50;;;2.40;99.90;;;;;;7400909;19;20289;-81
2021/12/20 12:26:48;;;;;;;1.50;1.40;;;2.40;99.90;;;;;;7396256;19;20352;-81
2021/12/20 12:29:19;;;;;;;1.90;1.38;;;2.30;99.90;;;;;;7402522;19;20342;-82
2021/12/20 12:31:57;;;;;;;4.67;1.47;;;2.30;99.90;;;;;;7388679;19;21133;-83
2021/12/20 12:34:35;;;;;;;1.95;1.60;;;2.30;99.90;;;;;;7396981;19;20313;-82
2021/12/20 12:37:22;;;;;;;1.35;1.25;;;2.40;99.90;;;;;;7399019;19;20330;-82
2021/12/20 12:39:50;;;;;;;2.20;1.30;;;2.40;99.90;;;;;;7390469;19;20339;-82
2021/12/20 12:42:16;;;;;;;1.57;1.33;;;2.50;99.90;;;;;;7398579;19;20323;-81
2021/12/20 12:44:50;;;;;;;1.67;1.50;;;2.40;99.90;;;;;;7402421;19;20321;-82
2021/12/20 12:47:34;;;;;;;1.50;1.33;;;2.40;99.90;;;;;;7405050;19;20321;-83
2021/12/20 12:50:06;;;;;;;1.90;1.60;;;2.40;99.90;;;;;;7296334;19;2004407;-82
2021/12/20 12:52:34;;;;;;;2.53;1.53;;;2.40;99.90;;;;;;7400623;19;20293;-82
2021/12/20 12:55:08;;;;;;;2.95;1.42;;;2.40;99.90;;;;;;7396582;19;20380;-81
2021/12/20 12:57:40;;;;;;;1.30;1.20;;;2.40;99.90;;;;;;7393059;19;20364;-81
2021/12/20 13:00:16;;;;;;;2.10;1.70;;;2.40;99.90;;;;;;7375106;19;20320;-82
2021/12/20 13:02:45;;;;;;;1.85;1.33;;;2.40;99.90;;;;;;7397927;19;20300;-82
2021/12/20 13:05:15;;;;;;;5.13;1.80;;;2.40;99.90;;;;;;7401641;19;20380;-84
2021/12/20 13:07:44;;;;;;;1.73;1.60;;;2.40;99.90;;;;;;7401608;19;20322;-83
2021/12/20 13:10:16;;;;;;;1.58;1.42;;;2.50;99.90;;;;;;7402837;19;20317;-82
2021/12/20 13:12:54;;;;;;;3.78;1.40;;;2.30;99.90;;;;;;7399394;19;20309;-81
2021/12/20 13:15:51;;;;;;;1.85;1.65;;;2.30;99.90;;;;;;7396944;19;20301;-81
2021/12/20 13:18:37;;;;;;;2.45;1.77;;;2.30;99.90;;;;;;7276271;19;2004443;-81
2021/12/20 13:21:06;;;;;;;2.10;1.40;;;2.40;99.90;;;;;;7295912;19;2004422;-82
2021/12/20 13:23:50;;;;;;;1.58;1.48;;;2.30;99.90;;;;;;7401131;19;20300;-82
2021/12/20 13:26:19;;;;;;;4.57;2.25;;;2.30;99.90;;;;;;7376383;19;20373;-82
2021/12/20 13:29:03;;;;;;;2.80;1.30;;;2.30;99.90;;;;;;7401180;19;20349;-81
2021/12/20 13:31:29;;;;;;;2.00;1.50;;;2.30;99.90;;;;;;7254971;19;2004512;-82
2021/12/20 13:33:59;;;;;;;1.33;1.23;;;2.30;99.90;;;;;;7409025;19;20415;-83
2021/12/20 13:36:51;;;;;;;1.63;1.40;;;2.30;99.90;;;;;;7301641;19;2004447;-82
2021/12/20 13:39:18;;;;;;;2.22;1.42;;;2.40;99.90;;;;;;7308136;19;2004570;-82
2021/12/20 13:41:44;;;;;;;2.65;1.40;;;2.20;99.90;;;;;;7404543;19;20370;-82
2021/12/20 13:44:19;;;;;;;1.40;1.30;;;2.40;99.90;;;;;;7405013;19;20337;-82
2021/12/20 13:47:03;;;;;;;1.30;1.20;;;2.30;99.90;;;;;;7382116;19;20328;-84
2021/12/20 13:49:29;;;;;;;1.88;1.33;;;2.40;99.90;;;;;;7397304;19;20393;-84
2021/12/20 13:52:02;;;;;;;2.00;1.60;;;2.40;99.90;;;;;;7398518;19;20357;-82
2021/12/20 13:54:37;;;;;;;1.52;1.40;;;2.40;99.90;;;;;;7396793;19;20326;-83
2021/12/20 13:57:14;;;;;;;3.20;1.60;;;2.40;99.90;;;;;;7398634;19;20281;-80
2021/12/20 13:59:57;;;;;;;1.45;1.35;;;2.20;99.90;;;;;;7399807;19;20352;-81
2021/12/20 14:02:44;;;;;;;3.20;2.67;;;2.30;99.90;;;;;;7281362;19;2004370;-83
2021/12/20 14:05:24;;;;;;;2.60;2.40;;;2.20;99.90;;;;;;7301665;19;2004600;-82
2021/12/20 14:07:59;;;;;;;2.38;2.13;;;2.20;99.90;;;;;;7402903;19;20324;-83
2021/12/20 16:15:36;;;;;;;2.15;1.77;;;1.40;99.90;;;;;;7397725;19;20639;-83
2021/12/20 16:18:02;;;;;;;1.60;1.50;;;1.40;99.90;;;;;;7408212;19;20315;-81
2021/12/20 16:20:28;;;;;;;2.00;1.63;;;1.40;99.90;;;;;;7398051;19;20323;-80
2021/12/20 16:22:54;;;;;;;1.80;1.60;;;1.50;99.90;;;;;;7384746;19;20404;-81
2021/12/20 16:25:21;;;;;;;2.03;1.45;;;1.30;99.90;;;;;;7397744;19;20317;-81
2021/12/20 16:27:49;;;;;;;1.85;1.60;;;1.40;99.90;;;;;;7402198;19;20833;-83
2021/12/20 16:30:19;;;;;;;2.45;1.73;;;1.40;99.90;;;;;;7375607;19;20909;-84
2021/12/20 16:32:46;;;;;;;1.90;1.60;;;1.40;99.90;;;;;;7391835;19;20350;-81
2021/12/20 16:35:14;;;;;;;2.25;1.80;;;1.30;99.90;;;;;;7402339;19;20328;-81
2021/12/20 16:37:41;;;;;;;2.00;1.73;;;1.30;99.90;;;;;;7401809;19;20324;-81
2021/12/20 16:40:08;;;;;;;1.90;1.70;;;1.30;99.90;;;;;;7360430;19;20321;-82
2021/12/20 16:42:36;;;;;;;2.33;1.57;;;1.30;99.90;;;;;;7390683;19;20320;-82
2021/12/20 16:45:03;;;;;;;2.05;1.67;;;1.20;99.90;;;;;;7405141;19;20763;-83
2021/12/20 16:47:37;;;;;;;1.63;1.50;;;1.20;99.90;;;;;;7365222;19;20332;-81
2021/12/20 16:50:08;;;;;;;3.47;1.92;;;1.20;99.90;;;;;;7391505;19;20674;-81
2021/12/20 16:52:38;;;;;;;2.70;1.85;;;1.10;99.90;;;;;;7392594;19;20320;-82
2021/12/20 16:55:05;;;;;;;2.00;1.60;;;1.10;99.90;;;;;;7370234;19;20328;-82
2021/12/20 16:57:32;;;;;;;2.22;1.63;;;1.10;99.90;;;;;;7373975;19;20331;-82
2021/12/20 17:00:04;;;;;;;1.60;1.30;;;1.10;99.90;;;;;;7382534;19;20316;-80
2021/12/20 17:02:43;;;;;;;2.07;1.57;;;1.00;99.90;;;;;;7403382;19;20304;-81
2021/12/20 17:05:21;;;;;;;2.00;1.55;;;1.00;99.90;;;;;;7300138;19;2004363;-84
2021/12/20 17:07:47;;;;;;;1.70;1.60;;;1.00;99.90;;;;;;7294162;19;2004350;-82
2021/12/20 17:10:18;;;;;;;2.35;1.80;;;0.90;99.90;;;;;;7377527;19;20293;-81
2021/12/20 17:12:45;;;;;;;1.60;1.50;;;0.90;99.90;;;;;;7400744;19;20341;-82
2021/12/20 17:15:11;;;;;;;2.00;1.80;;;1.00;99.90;;;;;;7400037;19;20837;-81
2021/12/20 17:17:37;;;;;;;2.30;2.08;;;0.90;99.90;;;;;;7401176;19;20293;-81
2021/12/20 17:20:04;;;;;;;2.13;1.92;;;0.90;99.90;;;;;;7397138;19;20318;-82
2021/12/20 17:28:35;;;;;;;6.10;3.65;;;0.80;99.90;;;;;;7354938;19;20320;-80
2021/12/20 17:31:01;;;;;;;3.15;2.85;;;0.80;99.90;;;;;;7386385;19;20325;-79
2021/12/20 17:33:27;;;;;;;3.07;2.50;;;0.80;99.90;;;;;;7386146;19;21456;-80
2021/12/20 17:35:53;;;;;;;3.42;2.80;;;0.70;99.90;;;;;;7383937;19;20337;-79
2021/12/20 17:38:18;;;;;;;2.03;1.90;;;0.70;99.90;;;;;;7388380;19;20363;-80
2021/12/20 17:40:45;;;;;;;3.53;2.30;;;0.70;99.90;;;;;;7394093;19;20315;-77
2021/12/20 17:43:12;;;;;;;2.03;1.90;;;0.70;99.90;;;;;;7364634;19;20352;-81
2021/12/20 17:45:38;;;;;;;2.63;1.88;;;0.70;99.90;;;;;;7395547;19;20415;-85
2021/12/20 17:48:04;;;;;;;3.42;2.20;;;0.60;99.90;;;;;;7388590;19;20346;-82
2021/12/20 17:50:30;;;;;;;2.20;2.00;;;0.60;99.90;;;;;;7388017;19;20332;-80
2021/12/20 17:52:56;;;;;;;2.30;2.10;;;0.60;99.90;;;;;;7389927;19;20321;-79
2021/12/20 17:55:22;;;;;;;2.85;1.88;;;0.50;99.90;;;;;;7389911;19;20375;-80
2021/12/20 17:57:48;;;;;;;1.85;1.75;;;0.50;99.90;;;;;;7388620;19;20348;-81
2021/12/20 18:00:21;;;;;;;1.40;1.30;;;0.50;99.90;;;;;;7389378;19;20316;-79
2021/12/20 18:02:46;;;;;;;3.00;1.52;;;0.40;99.90;;;;;;7390810;19;20321;-81
2021/12/20 18:05:13;;;;;;;2.23;1.70;;;0.30;99.90;;;;;;7388984;19;20317;-80
2021/12/20 18:07:39;;;;;;;1.90;1.70;;;0.30;99.90;;;;;;7390168;19;20344;-81
2021/12/20 18:10:05;;;;;;;1.73;1.63;;;0.30;99.90;;;;;;7389967;19;20323;-80
2021/12/20 18:12:32;;;;;;;2.70;1.70;;;0.30;99.90;;;;;;7389369;19;20321;-79
2021/12/20 18:14:58;;;;;;;1.45;1.35;;;0.20;99.90;;;;;;7386758;19;20867;-80
2021/12/20 18:17:24;;;;;;;1.60;1.50;;;0.20;99.90;;;;;;7391592;19;20333;-78
2021/12/20 18:19:50;;;;;;;1.75;1.60;;;0.20;99.90;;;;;;7380202;19;20673;-80
2021/12/20 18:22:19;;;;;;;1.77;1.67;;;0.20;99.90;;;;;;7389256;19;20320;-80
2021/12/20 18:24:44;;;;;;;1.75;1.65;;;0.20;99.90;;;;;;7389950;19;20436;-80
2021/12/20 18:27:10;;;;;;;2.08;1.67;;;0.20;99.90;;;;;;7388390;19;20335;-80
2021/12/20 18:29:36;;;;;;;5.45;1.85;;;0.10;99.90;;;;;;7387303;19;20324;-79
2021/12/20 18:32:03;;;;;;;2.27;2.03;;;0.10;99.90;;;;;;7386781;19;20709;-83
2021/12/20 18:34:29;;;;;;;2.58;2.38;;;0.10;99.90;;;;;;7381808;19;20351;-79
2021/12/20 18:36:54;;;;;;;2.33;2.13;;;0.00;99.90;;;;;;7381387;19;20340;-79
2021/12/20 18:39:21;;;;;;;2.30;1.90;;;0.00;99.90;;;;;;7378280;19;20332;-77
2021/12/20 18:41:47;;;;;;;2.10;1.90;;;0.00;99.90;;;;;;7362985;19;20312;-78
2021/12/20 18:44:13;;;;;;;3.75;2.72;;;-0.10;99.90;;;;;;7379221;19;20364;-79
2021/12/20 18:46:39;;;;;;;4.78;3.10;;;-0.10;99.90;;;;;;7384429;19;21075;-79
2021/12/20 18:49:06;;;;;;;2.38;2.17;;;-0.10;99.90;;;;;;7380317;19;20330;-79
2021/12/20 18:51:32;;;;;;;2.10;2.00;;;-0.20;99.90;;;;;;7381039;19;20344;-82
2021/12/20 18:53:58;;;;;;;3.80;2.33;;;-0.20;99.90;;;;;;7369682;19;20360;-79
2021/12/20 18:56:25;;;;;;;2.67;2.33;;;-0.10;99.90;;;;;;7385919;19;20341;-80
2021/12/20 18:58:50;;;;;;;2.17;1.95;;;-0.30;99.90;;;;;;7387847;19;20460;-79
2021/12/20 19:01:16;;;;;;;1.70;1.60;;;-0.30;99.90;;;;;;7389031;19;20325;-80
2021/12/20 19:03:42;;;;;;;1.67;1.53;;;-0.30;99.90;;;;;;7387727;19;20324;-81
2021/12/20 19:06:08;;;;;;;1.57;1.47;;;-0.40;99.90;;;;;;7397573;19;20348;-80
2021/12/20 19:08:33;;;;;;;2.38;2.08;;;-0.40;99.90;;;;;;7401817;19;20727;-80
2021/12/20 19:11:03;;;;;;;2.93;1.77;;;-0.30;99.90;;;;;;7396263;19;20387;-80
2021/12/20 19:13:41;;;;;;;2.47;2.10;;;-0.40;99.90;;;;;;7388444;19;20336;-78
2021/12/20 19:16:06;;;;;;;3.20;2.35;;;-0.30;99.90;;;;;;7389785;19;20352;-79
2021/12/20 19:18:32;;;;;;;3.73;2.57;;;-0.30;99.90;;;;;;7388601;19;20439;-80
2021/12/20 19:20:58;;;;;;;5.85;4.30;;;-0.30;99.90;;;;;;7392474;19;20353;-82
2021/12/20 19:23:24;;;;;;;3.40;3.08;;;-0.30;99.90;;;;;;7392515;19;20324;-79
2021/12/20 19:25:49;;;;;;;3.53;3.10;;;-0.30;99.90;;;;;;7385103;19;20324;-81
2021/12/20 19:28:15;;;;;;;3.30;3.00;;;-0.10;99.90;;;;;;7385768;19;20349;-81
2021/12/20 19:30:42;;;;;;;3.28;2.33;;;-0.20;99.90;;;;;;7388075;19;20365;-80
2021/12/20 19:33:07;;;;;;;3.88;2.58;;;-0.20;99.90;;;;;;7390771;19;21179;-82
2021/12/20 19:35:33;;;;;;;4.00;2.60;;;-0.20;99.90;;;;;;7386317;19;20352;-80
2021/12/20 19:37:59;;;;;;;4.78;3.72;;;-0.10;99.90;;;;;;7389239;19;20328;-80
2021/12/20 19:40:24;;;;;;;5.20;3.23;;;-0.20;99.90;;;;;;7389231;19;20717;-80
2021/12/20 19:42:50;;;;;;;3.88;3.00;;;-0.20;99.90;;;;;;7389179;19;20401;-82
2021/12/20 19:45:16;;;;;;;3.63;3.10;;;-0.10;99.90;;;;;;7390931;19;20333;-80
2021/12/20 19:47:41;;;;;;;7.53;3.45;;;-0.10;99.90;;;;;;7374441;19;20366;-80
2021/12/20 19:50:08;;;;;;;2.57;2.37;;;-0.10;99.90;;;;;;7385851;19;20316;-83
2021/12/20 19:52:34;;;;;;;3.23;2.93;;;0.10;99.90;;;;;;7387384;19;20954;-81
2021/12/20 19:55:00;;;;;;;3.75;2.90;;;-0.10;99.90;;;;;;7389851;19;20324;-80
2021/12/20 19:57:25;;;;;;;2.50;1.90;;;0.10;99.90;;;;;;7388072;19;20392;-81
2021/12/20 19:59:51;;;;;;;2.60;2.40;;;0.00;99.90;;;;;;7391345;19;20321;-81
2021/12/20 20:02:17;;;;;;;2.95;2.20;;;0.00;99.90;;;;;;7390786;19;20404;-79
2021/12/20 20:04:43;;;;;;;2.27;2.07;;;0.10;99.90;;;;;;7389412;19;20324;-80
2021/12/20 20:07:11;;;;;;;1.75;1.65;;;0.10;99.90;;;;;;7378587;19;20711;-80
2021/12/20 20:09:38;;;;;;;3.13;1.98;;;0.00;99.90;;;;;;7386393;19;20855;-80
2021/12/20 20:12:08;;;;;;;4.50;2.33;;;0.10;99.90;;;;;;7391163;19;20727;-81
2021/12/20 20:14:34;;;;;;;4.38;2.63;;;0.10;99.90;;;;;;7388747;19;20341;-80
2021/12/20 20:17:00;;;;;;;4.57;2.58;;;0.10;99.90;;;;;;7388244;19;20400;-82
2021/12/20 20:19:26;;;;;;;2.95;2.58;;;0.10;99.90;;;;;;7389883;19;20336;-80
2021/12/20 20:21:52;;;;;;;2.60;2.10;;;0.10;99.90;;;;;;7385764;19;20332;-80
2021/12/20 20:24:18;;;;;;;2.58;1.88;;;0.10;99.90;;;;;;7386756;19;20449;-80
2021/12/20 20:26:43;;;;;;;1.70;1.60;;;0.10;99.90;;;;;;7388948;19;20348;-81
2021/12/20 20:29:14;;;;;;;1.50;1.40;;;0.20;99.90;;;;;;7345988;19;20337;-82
2021/12/20 20:31:40;;;;;;;2.47;1.53;;;0.20;99.90;;;;;;7394550;19;20349;-81
2021/12/20 20:34:06;;;;;;;2.25;1.83;;;0.20;99.90;;;;;;7394000;19;20855;-81
2021/12/20 20:36:35;;;;;;;1.90;1.80;;;0.10;99.90;;;;;;7391227;19;20345;-82
2021/12/20 20:39:06;;;;;;;1.57;1.47;;;0.20;99.90;;;;;;7386582;19;20317;-80
2021/12/20 20:41:31;;;;;;;2.10;1.90;;;0.10;99.90;;;;;;7390524;19;20356;-81
2021/12/20 20:43:57;;;;;;;2.93;1.83;;;0.20;99.90;;;;;;7386529;19;20293;-80
2021/12/20 20:46:24;;;;;;;3.20;1.90;;;0.20;99.90;;;;;;7388914;19;20672;-81
2021/12/20 20:48:50;;;;;;;5.50;3.90;;;0.30;99.90;;;;;;7397281;19;20332;-78
2021/12/20 20:51:16;;;;;;;5.45;4.10;;;0.30;99.90;;;;;;7386147;19;20893;-80
2021/12/20 20:53:41;;;;;;;10.70;6.68;;;0.30;99.90;;;;;;7383657;19;20356;-79
2021/12/20 20:56:10;;;;;;;7.97;4.93;;;0.30;99.90;;;;;;7384890;19;20332;-78
2021/12/20 20:58:35;;;;;;;6.15;4.03;;;0.30;99.90;;;;;;7379163;19;20358;-80
2021/12/20 21:03:45;;;;;;;5.32;4.65;;;0.40;99.90;;;;;;7375780;19;20383;-79
2021/12/20 21:06:11;;;;;;;6.50;4.72;;;0.40;99.90;;;;;;7377983;19;20316;-80
2021/12/20 21:08:37;;;;;;;4.47;3.47;;;0.40;99.90;;;;;;7383717;19;20363;-80
2021/12/20 21:11:02;;;;;;;6.05;3.83;;;0.40;99.90;;;;;;7375829;19;20367;-79
2021/12/20 21:13:28;;;;;;;3.10;2.80;;;0.40;99.90;;;;;;7376538;19;20762;-80
2021/12/20 21:15:54;;;;;;;4.17;3.77;;;0.40;99.90;;;;;;7379430;19;20341;-80
2021/12/20 21:18:20;;;;;;;6.30;5.03;;;0.30;99.90;;;;;;7377413;19;20376;-80
2021/12/20 21:20:45;;;;;;;2.60;2.40;;;0.40;99.90;;;;;;7381093;19;20332;-79
2021/12/20 21:23:11;;;;;;;3.10;2.40;;;0.40;99.90;;;;;;7383362;19;20345;-80
2021/12/20 21:25:37;;;;;;;2.93;2.60;;;0.40;99.90;;;;;;7379003;19;20345;-81
2021/12/20 21:28:02;;;;;;;2.93;2.67;;;0.40;99.90;;;;;;7378286;19;20375;-80
2021/12/20 21:30:28;;;;;;;2.63;2.42;;;0.50;99.90;;;;;;7386138;19;20348;-80
2021/12/20 21:32:54;;;;;;;2.45;2.10;;;0.50;99.90;;;;;;7368987;19;20910;-80
2021/12/20 21:35:23;;;;;;;2.20;2.00;;;0.40;99.90;;;;;;7382394;19;20343;-79
2021/12/20 21:37:49;;;;;;;2.73;2.53;;;0.50;99.90;;;;;;7381999;19;20412;-80
2021/12/20 21:40:15;;;;;;;5.43;2.43;;;0.50;99.90;;;;;;7385082;19;20317;-80
2021/12/20 21:42:41;;;;;;;1.85;1.75;;;0.40;99.90;;;;;;7382018;19;20348;-79
2021/12/20 21:45:07;;;;;;;2.45;2.15;;;0.40;99.90;;;;;;7381507;19;20355;-79
2021/12/20 21:47:32;;;;;;;2.00;1.80;;;0.50;99.90;;;;;;7383297;19;20395;-78
2021/12/20 21:49:58;;;;;;;2.17;1.90;;;0.50;99.90;;;;;;7393495;19;20332;-82
2021/12/20 21:52:24;;;;;;;2.08;1.67;;;0.60;99.90;;;;;;7384993;19;20344;-79
2021/12/20 21:54:49;;;;;;;2.27;1.90;;;0.50;99.90;;;;;;7388665;19;20316;-80
2021/12/20 21:57:15;;;;;;;2.30;2.13;;;0.40;99.90;;;;;;7386254;19;20758;-79
2021/12/20 21:59:41;;;;;;;2.55;2.33;;;0.40;99.90;;;;;;7383993;19;21057;-80
2021/12/20 22:02:06;;;;;;;2.57;2.30;;;0.40;99.90;;;;;;7380949;19;20881;-78
2021/12/20 22:04:32;;;;;;;4.25;2.30;;;0.40;99.90;;;;;;7377071;19;20457;-79
2021/12/20 22:06:58;;;;;;;4.13;2.20;;;0.50;99.90;;;;;;7386269;19;20662;-79
2021/12/20 22:09:23;;;;;;;1.73;1.63;;;0.30;99.90;;;;;;7382563;19;20656;-80
2021/12/20 22:11:49;;;;;;;2.60;2.10;;;0.30;99.90;;;;;;7383562;19;20369;-79
2021/12/20 22:14:15;;;;;;;2.00;1.80;;;0.40;99.90;;;;;;7379626;19;20416;-80
2021/12/20 22:16:40;;;;;;;1.90;1.80;;;0.40;99.90;;;;;;7383404;19;20376;-79
2021/12/20 22:19:06;;;;;;;2.03;1.87;;;0.40;99.90;;;;;;7383099;19;20317;-79
2021/12/20 22:21:32;;;;;;;1.97;1.83;;;0.40;99.90;;;;;;7382313;19;20344;-80
2021/12/20 22:23:58;;;;;;;1.70;1.60;;;0.50;99.90;;;;;;7376424;19;20355;-78
2021/12/20 22:26:24;;;;;;;1.63;1.52;;;0.50;99.90;;;;;;7382310;19;20855;-79
2021/12/20 22:28:50;;;;;;;2.30;1.77;;;0.50;99.90;;;;;;7381617;19;20345;-81
2021/12/20 22:31:16;;;;;;;2.55;1.92;;;0.50;99.90;;;;;;7384580;19;21287;-80
2021/12/20 22:33:42;;;;;;;2.20;2.00;;;0.50;99.90;;;;;;7387428;19;20328;-82
2021/12/20 22:36:08;;;;;;;2.05;1.60;;;0.50;99.90;;;;;;7388499;19;20874;-78
2021/12/20 22:38:34;;;;;;;2.00;1.90;;;0.50;99.90;;;;;;7388128;19;20360;-79
2021/12/20 22:41:00;;;;;;;2.97;1.70;;;0.40;99.90;;;;;;7389316;19;20411;-79
2021/12/20 22:43:25;;;;;;;1.73;1.63;;;0.50;99.90;;;;;;7386342;19;20332;-79
2021/12/20 22:45:51;;;;;;;1.50;1.40;;;0.50;99.90;;;;;;7390721;19;20340;-79
2021/12/20 22:48:17;;;;;;;1.50;1.40;;;0.50;99.90;;;;;;7390993;19;20862;-79
2021/12/20 22:50:42;;;;;;;2.60;2.28;;;0.50;99.90;;;;;;7389724;19;20333;-79
2021/12/20 22:53:08;;;;;;;3.43;1.93;;;0.50;99.90;;;;;;7390621;19;20328;-79
2021/12/20 22:55:34;;;;;;;1.60;1.50;;;0.50;99.90;;;;;;7388651;19;20428;-79
2021/12/20 22:57:59;;;;;;;4.70;2.00;;;0.50;99.90;;;;;;7396143;19;20321;-80
2021/12/20 23:00:25;;;;;;;2.47;2.17;;;0.50;99.90;;;;;;7390188;19;20889;-79
2021/12/20 23:02:51;;;;;;;3.00;1.92;;;0.40;99.90;;;;;;7391642;19;21424;-79
2021/12/20 23:05:17;;;;;;;2.97;1.80;;;0.40;99.90;;;;;;7390144;19;20660;-80
2021/12/20 23:07:42;;;;;;;2.10;1.95;;;0.50;99.90;;;;;;7390557;19;20325;-79
2021/12/20 23:10:10;;;;;;;2.10;1.90;;;0.50;99.90;;;;;;7392769;19;20424;-79
2021/12/20 23:15:35;;;;;;;2.70;2.45;;;0.50;99.90;;;;;;7293242;19;2005392;-77
2021/12/20 23:18:04;;;;;;;2.53;2.22;;;0.40;99.90;;;;;;7288556;19;2019965;-79
2021/12/20 23:20:30;;;;;;;2.17;1.97;;;0.40;99.90;;;;;;7390570;19;20341;-78
2021/12/20 23:23:01;;;;;;;1.90;1.60;;;0.50;99.90;;;;;;7389844;19;20348;-79
2021/12/20 23:25:27;;;;;;;2.28;1.88;;;0.50;99.90;;;;;;7388927;19;20348;-79
2021/12/20 23:27:53;;;;;;;2.30;2.10;;;0.50;99.90;;;;;;7391555;19;20328;-79
2021/12/20 23:30:19;;;;;;;4.68;2.47;;;0.50;99.90;;;;;;7387876;19;20362;-79
2021/12/20 23:32:44;;;;;;;2.23;2.03;;;0.60;99.90;;;;;;7389782;19;20353;-80
2021/12/20 23:35:10;;;;;;;2.13;2.00;;;0.60;99.90;;;;;;7389523;19;20331;-79
2021/12/20 23:37:40;;;;;;;2.13;1.90;;;0.60;99.90;;;;;;7388254;19;20826;-79
2021/12/20 23:40:08;;;;;;;2.15;1.95;;;0.60;99.90;;;;;;7389523;19;20337;-79
2021/12/20 23:42:45;;;;;;;2.70;2.03;;;0.60;99.90;;;;;;7389606;19;20808;-77
2021/12/20 23:45:12;;;;;;;2.45;2.25;;;0.50;99.90;;;;;;7285365;19;2006204;-79
2021/12/20 23:47:37;;;;;;;2.08;1.98;;;0.60;99.90;;;;;;7389474;19;20375;-79
2021/12/20 23:50:03;;;;;;;2.63;2.42;;;0.60;99.90;;;;;;7387316;19;20320;-78
2021/12/20 23:52:29;;;;;;;2.85;2.55;;;0.50;99.90;;;;;;7389072;19;20345;-79
2021/12/20 23:54:54;;;;;;;2.00;1.90;;;0.50;99.90;;;;;;7386646;19;20320;-80
2021/12/20 23:57:20;;;;;;;2.20;2.00;;;0.60;99.90;;;;;;7387988;19;20332;-79
2021/12/20 23:59:46;;;;;;;2.20;2.00;;;0.60;99.90;;;;;;7362710;19;20297;-79
